Wednesday, October 22, 2014
21:45 UTC
  |  Log In   |  Register Free
Airport Search:

Foothills Regional Airport
(KMRN)

Foothills Regional Airport Diagram
No Airport Diagram Available

FAA data valid effective September 18, 2014 - November 13, 2014 (unless otherwise noted).

 
 
 
 
 
 
 
 
 
 
 
 
 
 

Current Aviation Weather for Foothills Regional Airport (KMRN)

The most recent METAR observation for KMRN was updated at: 2112
METAR Summary (Translated METAR)
KMRN
222055Z AUTO 33010G17KT 10SM CLR 14/03 A3014 RMK AO2 T01410032
KHKY
222053Z 35008KT 10SM CLR 14/03 A3008 RMK AO2 SLP176 T01440033 53004
(11.8 nm SE from KMRN)
KFQD
222055Z AUTO 34009G16KT 10SM CLR 16/03 A3010 RMK AO2 T01600029
(28.3 nm SW from KMRN)
TAF Summary (Translated TAF)
KHKY
(11.8 nm SE from KMRN)
221731Z 2218/2318 34011G18KT P6SM FEW060 FEW250 FM230400 33006KT P6SM SKC
  Airport Weather Conditions for KMRN

 Current Weather at MRN
59° F
Fair
Northwest winds at 11.5 mph
MRN NOAA Radar

Pressure: 30.15 in
Humidity: 45%
Wind: from the Northwest at 11.5 gusting to 24.2 MPH (10 gusting to 21 KT)
Dew Point: 37.6°F
Visibility: 10.00 mi


Airport Weather Forecast for KMRN

Translated METAR and TAF for KMRN
Translated METAR for KMRN (2140 UTC 22 October 2014)
found at http://aviationweather.gov/adds/metars/
 
METAR text: KMRN 222135Z AUTO 35008G17KT 310V010 10SM CLR 14/04 A3015 RMK AO2 T01360035
Conditions at: KMRN (MORGANTON/LENOIR, NC, US) observed 2135 UTC 22 October 2014
Temperature: 13.6°C (56°F)
Dewpoint: 3.5°C (38°F) [RH = 50%]
Pressure (altimeter): 30.15 inches Hg (1021.1 mb)
Winds: from the N (350 degrees) at 9 MPH (8 knots; 4.2 m/s)
gusting to 20 MPH (17 knots; 8.8 m/s)
Visibility: 10 or more miles (16+ km)
Ceiling: at least 12,000 feet AGL
Clouds: sky clear below 12,000 feet AGL
Weather: automated observation with no human augmentation;
there may or may not be significant weather present at this time
Translated TAF for KMRN

There is no translated TAF available for this airport

Find All Airport Services Find A Hotel Find A Rental Car Find A Golf Course Find A Restaurant $100 Hamburger



FBO's on the Field
FBO Company Facility Photos Services Transportation Aviation Fuel Prices: Prices include tax
Catering Weather Repair Courtesy Rental Type 100LL JetA JetA+ MOGAS 8087
 
Foothills Aviation

This FBO has not yet been rated
FS:Shell
Last Updated: Oct-10
Login to update fuel prices
SS:
Contact Foothills AviationMore FBO Information
 
Add another FBO Facility Photos Catering Weather Repair Courtesy Rental Type 100LL JetA JetA+ MOGAS 8087
Services Transportation Aviation Fuel Prices: Prices include tax


model-print
model-print
model-print
model-print